Time;durP1;ratioP1;P1;durP2;ratioP2;P2;SDS_P1;SDS_P2;PMS_P1;PMS_P2;Temp;Humidity;BMP_temperature;BMP_pressure;BME280_temperature;BME280_humidity;BME280_pressure;Samples;Min_cycle;Max_cycle;Signal;HPM_P1;HPM_P2
2021/10/24 00:00:56;;;;;;;33.53;10.35;;;;;;;;;;4976539;28;20042;-72
2021/10/24 00:03:24;;;;;;;31.33;9.63;;;;;;;;;;4976510;28;20102;-72
2021/10/24 00:05:54;;;;;;;26.45;9.43;;;;;;;;;;4976656;28;20390;-77
2021/10/24 00:08:21;;;;;;;28.60;9.20;;;;;;;;;;4976275;28;20043;-72
2021/10/24 00:10:53;;;;;;;29.23;9.73;;;;;;;;;;4976381;28;20050;-78
2021/10/24 00:13:20;;;;;;;34.05;10.13;;;;;;;;;;4959510;28;20140;-72
2021/10/24 00:15:48;;;;;;;28.60;9.82;;;;;;;;;;4976491;28;20090;-78
2021/10/24 00:18:16;;;;;;;34.08;10.38;;;;;;;;;;4975940;28;20574;-77
2021/10/24 00:20:46;;;;;;;37.63;10.43;;;;;;;;;;4959864;28;20070;-72
2021/10/24 00:23:14;;;;;;;32.63;9.90;;;;;;;;;;4975682;28;20122;-77
2021/10/24 00:25:41;;;;;;;36.67;10.15;;;;;;;;;;4975898;28;20098;-78
2021/10/24 00:28:09;;;;;;;30.30;9.90;;;;;;;;;;4975950;28;20055;-77
2021/10/24 00:30:55;;;;;;;34.97;10.20;;;;;;;;;;4944969;28;20050;-78
2021/10/24 00:33:23;;;;;;;29.65;10.60;;;;;;;;;;4958562;28;20129;-77
2021/10/24 00:36:11;;;;;;;31.83;11.15;;;;;;;;;;4975979;28;20062;-72
2021/10/24 00:38:38;;;;;;;35.13;11.30;;;;;;;;;;4975610;28;20076;-72
2021/10/24 00:41:07;;;;;;;33.00;11.05;;;;;;;;;;4975906;28;20039;-78
2021/10/24 00:43:34;;;;;;;44.83;11.48;;;;;;;;;;4959001;28;20066;-78
2021/10/24 00:46:03;;;;;;;34.88;10.68;;;;;;;;;;4958938;28;20129;-77
2021/10/24 00:48:51;;;;;;;31.17;11.13;;;;;;;;;;4973526;28;20441;-72
2021/10/24 00:51:21;;;;;;;49.10;12.00;;;;;;;;;;4954933;28;20137;-72
2021/10/24 00:53:48;;;;;;;30.98;10.23;;;;;;;;;;4956828;28;20154;-72
2021/10/24 00:56:17;;;;;;;35.15;9.82;;;;;;;;;;4975464;28;20361;-71
2021/10/24 00:58:47;;;;;;;40.63;10.82;;;;;;;;;;4958229;28;20051;-77
2021/10/24 01:01:15;;;;;;;39.75;10.93;;;;;;;;;;4976199;28;20043;-71
2021/10/24 01:03:42;;;;;;;38.28;11.60;;;;;;;;;;4958113;28;20042;-72
2021/10/24 01:06:10;;;;;;;34.70;11.40;;;;;;;;;;4957597;28;20078;-77
2021/10/24 01:08:38;;;;;;;38.95;10.70;;;;;;;;;;4958061;28;20053;-77
2021/10/24 01:11:06;;;;;;;37.72;10.38;;;;;;;;;;4975397;28;20138;-76
2021/10/24 01:13:34;;;;;;;47.95;10.93;;;;;;;;;;4958371;28;20046;-77
2021/10/24 01:16:09;;;;;;;37.05;11.32;;;;;;;;;;4958027;28;20612;-78
2021/10/24 01:18:40;;;;;;;49.30;13.43;;;;;;;;;;4958299;28;20105;-77
2021/10/24 01:21:08;;;;;;;36.40;10.88;;;;;;;;;;4957522;28;20047;-77
2021/10/24 01:23:36;;;;;;;33.67;10.60;;;;;;;;;;4957780;28;20042;-77
2021/10/24 01:26:04;;;;;;;35.88;11.60;;;;;;;;;;4957828;28;20046;-77
2021/10/24 01:28:32;;;;;;;42.42;11.35;;;;;;;;;;4974976;28;20540;-71
2021/10/24 01:30:59;;;;;;;38.78;10.90;;;;;;;;;;4957660;28;20137;-72
2021/10/24 01:33:30;;;;;;;36.25;9.77;;;;;;;;;;4957335;28;20047;-72
2021/10/24 01:36:01;;;;;;;36.72;11.88;;;;;;;;;;4957398;28;20065;-71
2021/10/24 01:38:31;;;;;;;33.30;10.52;;;;;;;;;;4957642;28;20057;-77
2021/10/24 01:40:59;;;;;;;32.42;10.10;;;;;;;;;;4957694;28;20073;-77
2021/10/24 01:43:27;;;;;;;42.47;10.93;;;;;;;;;;4957200;28;20515;-72
2021/10/24 01:45:56;;;;;;;37.47;10.73;;;;;;;;;;4974767;28;20050;-72
2021/10/24 01:48:24;;;;;;;32.70;10.77;;;;;;;;;;4941432;28;20511;-71
2021/10/24 01:50:53;;;;;;;29.45;11.35;;;;;;;;;;4974441;28;20081;-77
2021/10/24 01:53:26;;;;;;;32.63;10.00;;;;;;;;;;4974859;28;20047;-78
2021/10/24 01:55:55;;;;;;;33.22;10.18;;;;;;;;;;4957426;28;20158;-72
2021/10/24 01:58:27;;;;;;;33.13;10.10;;;;;;;;;;4957070;28;20055;-77
2021/10/24 02:00:56;;;;;;;34.95;9.68;;;;;;;;;;4941661;28;20061;-75
2021/10/24 02:03:32;;;;;;;32.72;9.50;;;;;;;;;;4956888;28;20097;-72
2021/10/24 02:06:16;;;;;;;33.03;9.35;;;;;;;;;;4956628;28;20047;-77
2021/10/24 02:08:44;;;;;;;32.00;8.75;;;;;;;;;;4957219;28;20049;-72
2021/10/24 02:11:13;;;;;;;28.30;8.88;;;;;;;;;;4956971;28;20535;-72
2021/10/24 02:13:41;;;;;;;27.88;8.85;;;;;;;;;;4956523;28;20047;-78
2021/10/24 02:16:09;;;;;;;26.48;8.63;;;;;;;;;;4957282;28;20467;-72
2021/10/24 02:18:44;;;;;;;30.88;9.38;;;;;;;;;;4956940;28;20423;-72
2021/10/24 02:21:11;;;;;;;35.60;9.55;;;;;;;;;;4957035;28;20050;-71
2021/10/24 02:23:41;;;;;;;28.42;9.10;;;;;;;;;;4956551;28;20046;-77
2021/10/24 02:26:13;;;;;;;36.65;9.07;;;;;;;;;;4956769;28;20134;-72
2021/10/24 02:28:42;;;;;;;32.38;9.50;;;;;;;;;;4953479;29;20058;-77
2021/10/24 02:31:10;;;;;;;29.08;9.40;;;;;;;;;;4953700;29;20138;-78
2021/10/24 02:33:57;;;;;;;31.30;9.88;;;;;;;;;;4953109;29;20043;-72
2021/10/24 02:36:33;;;;;;;39.53;9.80;;;;;;;;;;4955063;28;20056;-72
2021/10/24 02:39:03;;;;;;;31.77;10.13;;;;;;;;;;4953767;29;20532;-78
2021/10/24 02:41:36;;;;;;;31.73;10.30;;;;;;;;;;4953753;29;20058;-71
2021/10/24 02:44:06;;;;;;;30.90;10.90;;;;;;;;;;4937796;29;20043;-72
2021/10/24 02:46:43;;;;;;;27.17;9.88;;;;;;;;;;4953336;29;20063;-72
2021/10/24 02:49:14;;;;;;;36.25;9.98;;;;;;;;;;4953095;29;20413;-72
2021/10/24 02:51:50;;;;;;;33.38;9.93;;;;;;;;;;4953609;29;20534;-77
2021/10/24 02:54:19;;;;;;;33.97;9.15;;;;;;;;;;4953643;29;20086;-78
2021/10/24 02:56:46;;;;;;;32.03;10.32;;;;;;;;;;4953501;29;20040;-77
2021/10/24 02:59:16;;;;;;;26.83;9.68;;;;;;;;;;4954884;29;20073;-77
2021/10/24 03:01:46;;;;;;;28.67;8.73;;;;;;;;;;4937119;29;20145;-72
2021/10/24 03:04:14;;;;;;;31.52;8.60;;;;;;;;;;4952760;29;20051;-77
2021/10/24 03:06:47;;;;;;;33.38;9.50;;;;;;;;;;4953165;29;20043;-77
2021/10/24 03:09:14;;;;;;;36.38;9.63;;;;;;;;;;4953125;29;20130;-78
2021/10/24 03:11:44;;;;;;;25.70;9.82;;;;;;;;;;4953118;29;20063;-78
2021/10/24 03:14:13;;;;;;;35.75;9.52;;;;;;;;;;4952894;29;20532;-77
2021/10/24 03:16:42;;;;;;;31.25;9.57;;;;;;;;;;4953382;28;20044;-72
2021/10/24 03:19:11;;;;;;;36.58;9.10;;;;;;;;;;4956500;29;20047;-77
2021/10/24 03:21:44;;;;;;;37.53;9.73;;;;;;;;;;4957176;29;20077;-77
2021/10/24 03:24:13;;;;;;;32.35;9.68;;;;;;;;;;4956540;29;20054;-77
2021/10/24 03:26:42;;;;;;;36.45;9.10;;;;;;;;;;4957836;28;20122;-77
2021/10/24 03:29:12;;;;;;;32.40;9.05;;;;;;;;;;4960065;28;20051;-77
2021/10/24 03:31:40;;;;;;;38.03;10.68;;;;;;;;;;4959373;28;20055;-76
2021/10/24 03:34:07;;;;;;;31.13;9.00;;;;;;;;;;4976936;28;20419;-72
2021/10/24 03:36:36;;;;;;;28.42;8.63;;;;;;;;;;4960028;28;20077;-77
2021/10/24 03:39:05;;;;;;;32.22;9.32;;;;;;;;;;4959818;28;20061;-72
2021/10/24 03:41:33;;;;;;;40.05;9.73;;;;;;;;;;4959906;28;20058;-78
2021/10/24 03:44:01;;;;;;;35.67;9.38;;;;;;;;;;4959471;28;20496;-72
2021/10/24 03:46:31;;;;;;;35.25;9.63;;;;;;;;;;4959207;28;20070;-78
2021/10/24 03:48:59;;;;;;;35.22;9.18;;;;;;;;;;4977078;28;20121;-72
2021/10/24 03:51:27;;;;;;;29.77;8.98;;;;;;;;;;4959560;28;20055;-72
2021/10/24 03:53:57;;;;;;;34.10;9.07;;;;;;;;;;4959757;28;20051;-72
2021/10/24 03:56:25;;;;;;;28.30;8.77;;;;;;;;;;4959621;28;20039;-78
2021/10/24 03:58:54;;;;;;;29.67;9.20;;;;;;;;;;4959379;28;20397;-76
2021/10/24 04:01:21;;;;;;;34.78;9.02;;;;;;;;;;4943047;28;20085;-72
2021/10/24 04:03:49;;;;;;;40.03;9.73;;;;;;;;;;4976694;28;20035;-72
2021/10/24 04:06:19;;;;;;;28.35;9.13;;;;;;;;;;4976341;28;20515;-72
2021/10/24 04:08:47;;;;;;;27.23;8.10;;;;;;;;;;4959211;28;20133;-72
2021/10/24 04:11:14;;;;;;;28.45;8.80;;;;;;;;;;4958970;28;20051;-77
2021/10/24 04:13:42;;;;;;;32.92;9.38;;;;;;;;;;4959189;28;20058;-78
2021/10/24 04:16:13;;;;;;;29.10;8.70;;;;;;;;;;4958771;28;20074;-72
2021/10/24 04:19:00;;;;;;;31.05;9.43;;;;;;;;;;4961975;28;20057;-71
2021/10/24 04:21:30;;;;;;;31.05;8.63;;;;;;;;;;4943393;28;20137;-77
2021/10/24 04:23:59;;;;;;;35.70;8.32;;;;;;;;;;4942990;28;20050;-77
2021/10/24 04:26:27;;;;;;;26.23;8.07;;;;;;;;;;4958920;28;20085;-77
2021/10/24 04:28:56;;;;;;;30.65;9.00;;;;;;;;;;4954670;28;20508;-72
2021/10/24 04:31:24;;;;;;;30.98;8.55;;;;;;;;;;4955309;29;20409;-72
2021/10/24 04:33:52;;;;;;;37.35;9.27;;;;;;;;;;4955825;29;20053;-78
2021/10/24 04:36:20;;;;;;;28.27;8.43;;;;;;;;;;4939761;29;20464;-72
2021/10/24 04:38:47;;;;;;;38.08;8.57;;;;;;;;;;4955516;29;20059;-72
2021/10/24 04:41:15;;;;;;;29.52;7.95;;;;;;;;;;4955848;29;20621;-72
2021/10/24 04:43:45;;;;;;;23.73;6.95;;;;;;;;;;4955211;29;20400;-77
2021/10/24 04:46:19;;;;;;;26.05;6.70;;;;;;;;;;4955030;29;20054;-72
2021/10/24 04:48:47;;;;;;;28.13;7.72;;;;;;;;;;4955175;29;20047;-72
2021/10/24 04:51:21;;;;;;;23.27;7.60;;;;;;;;;;4956800;28;20047;-72
2021/10/24 04:53:49;;;;;;;22.60;7.85;;;;;;;;;;4955400;29;20066;-77
2021/10/24 04:56:20;;;;;;;25.52;7.68;;;;;;;;;;4954949;29;20050;-72
2021/10/24 04:58:50;;;;;;;26.85;9.00;;;;;;;;;;4938442;29;20469;-71
2021/10/24 05:01:18;;;;;;;21.05;9.07;;;;;;;;;;4956481;28;20118;-76
2021/10/24 05:03:48;;;;;;;30.25;9.40;;;;;;;;;;4954893;29;20043;-76
2021/10/24 05:06:19;;;;;;;26.23;9.02;;;;;;;;;;4954532;29;20062;-72
2021/10/24 05:08:46;;;;;;;28.67;9.48;;;;;;;;;;4954644;29;20082;-77
2021/10/24 05:11:15;;;;;;;31.63;9.70;;;;;;;;;;4954909;29;20047;-77
2021/10/24 05:13:44;;;;;;;30.90;9.43;;;;;;;;;;4938133;29;20138;-77
2021/10/24 05:16:11;;;;;;;34.88;9.40;;;;;;;;;;4955909;28;20098;-72
2021/10/24 05:18:39;;;;;;;24.10;8.77;;;;;;;;;;4939049;29;20047;-77
2021/10/24 05:21:08;;;;;;;31.20;9.25;;;;;;;;;;4954469;29;20047;-72
2021/10/24 05:23:35;;;;;;;33.10;9.95;;;;;;;;;;4954676;29;20054;-72
2021/10/24 05:26:05;;;;;;;33.33;9.18;;;;;;;;;;4954500;29;20081;-72
2021/10/24 05:28:33;;;;;;;26.85;8.82;;;;;;;;;;4971424;28;20109;-72
2021/10/24 05:31:01;;;;;;;29.95;7.97;;;;;;;;;;4957972;28;20053;-72
2021/10/24 05:33:31;;;;;;;31.52;8.73;;;;;;;;;;4957211;28;20054;-72
2021/10/24 05:36:24;;;;;;;26.95;7.93;;;;;;;;;;4957768;28;20038;-77
2021/10/24 05:38:54;;;;;;;35.45;8.93;;;;;;;;;;4957313;28;20515;-76
2021/10/24 05:41:27;;;;;;;29.85;9.50;;;;;;;;;;4955687;28;20101;-72
2021/10/24 05:43:56;;;;;;;26.63;8.35;;;;;;;;;;4928174;28;20413;-72
2021/10/24 05:46:24;;;;;;;20.90;7.00;;;;;;;;;;4953396;28;20047;-71
2021/10/24 05:48:58;;;;;;;25.33;7.68;;;;;;;;;;4957046;28;20194;-73
2021/10/24 05:51:26;;;;;;;24.23;7.50;;;;;;;;;;4969520;28;20088;-77
2021/10/24 05:53:55;;;;;;;30.20;7.70;;;;;;;;;;4957764;28;20133;-76
2021/10/24 05:56:32;;;;;;;28.33;8.82;;;;;;;;;;4957776;28;20137;-72
2021/10/24 05:59:01;;;;;;;33.70;9.10;;;;;;;;;;4956468;28;20389;-70
2021/10/24 06:01:41;;;;;;;34.67;10.27;;;;;;;;;;4938425;29;20050;-76
2021/10/24 06:04:37;;;;;;;37.95;9.95;;;;;;;;;;4938305;29;20058;-72
2021/10/24 06:07:37;;;;;;;37.53;12.02;;;;;;;;;;4946200;29;20057;-75
2021/10/24 06:10:21;;;;;;;39.97;10.15;;;;;;;;;;4938154;29;20047;-72
2021/10/24 06:12:53;;;;;;;46.22;10.80;;;;;;;;;;4938420;28;20058;-77
2021/10/24 06:15:21;;;;;;;29.27;10.23;;;;;;;;;;4938488;29;20485;-76
2021/10/24 06:17:49;;;;;;;35.60;10.30;;;;;;;;;;4955434;29;20047;-76
2021/10/24 06:20:24;;;;;;;28.40;9.88;;;;;;;;;;4955284;29;20063;-76
2021/10/24 06:22:57;;;;;;;27.02;8.05;;;;;;;;;;4922355;29;20130;-73
2021/10/24 06:25:25;;;;;;;27.92;9.13;;;;;;;;;;4937825;29;20575;-77
2021/10/24 06:28:02;;;;;;;29.60;8.80;;;;;;;;;;4934547;29;20111;-71
2021/10/24 06:30:32;;;;;;;30.23;8.95;;;;;;;;;;4934504;29;20048;-77
2021/10/24 06:33:25;;;;;;;21.13;7.72;;;;;;;;;;4934532;29;20119;-76
2021/10/24 06:36:18;;;;;;;28.98;8.30;;;;;;;;;;4932028;29;20110;-77
2021/10/24 06:39:16;;;;;;;29.17;8.10;;;;;;;;;;4922658;29;20054;-78
2021/10/24 06:41:44;;;;;;;28.63;8.13;;;;;;;;;;4919192;29;20123;-79
2021/10/24 06:44:40;;;;;;;27.27;7.88;;;;;;;;;;4934368;29;20043;-72
2021/10/24 06:47:37;;;;;;;24.85;7.65;;;;;;;;;;4934157;29;20079;-76
2021/10/24 06:50:28;;;;;;;29.02;7.75;;;;;;;;;;4947826;28;20138;-72
2021/10/24 06:52:57;;;;;;;25.45;8.18;;;;;;;;;;4957044;28;20047;-79
2021/10/24 06:55:45;;;;;;;25.40;8.07;;;;;;;;;;4956498;29;20112;-77
2021/10/24 06:58:44;;;;;;;16.67;6.90;;;;;;;;;;4923988;28;20517;-73
2021/10/24 07:01:41;;;;;;;22.38;6.10;;;;;;;;;;4953163;29;20135;-76
2021/10/24 07:04:28;;;;;;;35.22;7.40;;;;;;;;;;4957844;29;20106;-79
2021/10/24 07:07:07;;;;;;;30.08;7.45;;;;;;;;;;4942741;29;20047;-79
2021/10/24 07:09:54;;;;;;;24.92;7.20;;;;;;;;;;4943213;29;20540;-73
2021/10/24 07:12:22;;;;;;;23.27;6.38;;;;;;;;;;4957131;29;20057;-75
2021/10/24 07:14:51;;;;;;;33.20;8.45;;;;;;;;;;4941506;29;20047;-75
2021/10/24 07:17:19;;;;;;;18.13;6.65;;;;;;;;;;4956766;29;20563;-75
2021/10/24 07:19:47;;;;;;;26.70;6.88;;;;;;;;;;4957202;29;20043;-77
2021/10/24 07:22:16;;;;;;;23.58;6.25;;;;;;;;;;4956749;29;20098;-79
2021/10/24 07:25:03;;;;;;;29.73;6.90;;;;;;;;;;4957367;29;20489;-79
2021/10/24 07:27:41;;;;;;;21.83;6.65;;;;;;;;;;4960160;28;20125;-73
2021/10/24 07:30:12;;;;;;;21.85;6.93;;;;;;;;;;4960043;28;20058;-76
2021/10/24 07:33:00;;;;;;;21.15;5.97;;;;;;;;;;4955509;28;20063;-75
2021/10/24 07:35:46;;;;;;;23.05;6.18;;;;;;;;;;4941664;29;20133;-75
2021/10/24 07:38:16;;;;;;;22.50;6.25;;;;;;;;;;4938090;29;20362;-78
2021/10/24 07:40:49;;;;;;;21.50;7.00;;;;;;;;;;4951768;28;20047;-78
2021/10/24 07:43:22;;;;;;;23.10;6.95;;;;;;;;;;4944662;28;20415;-73
2021/10/24 07:45:52;;;;;;;25.10;6.90;;;;;;;;;;4957401;28;20105;-72
2021/10/24 07:48:25;;;;;;;24.02;7.05;;;;;;;;;;4957225;28;20105;-73
2021/10/24 07:50:53;;;;;;;21.13;6.40;;;;;;;;;;4959100;28;20454;-76
2021/10/24 07:53:27;;;;;;;24.13;6.70;;;;;;;;;;4959119;28;20110;-77
2021/10/24 07:56:03;;;;;;;29.67;7.30;;;;;;;;;;4959593;28;20308;-72
2021/10/24 07:58:57;;;;;;;29.65;7.72;;;;;;;;;;4976863;28;20058;-73
2021/10/24 08:01:24;;;;;;;22.55;6.43;;;;;;;;;;4959370;28;20042;-77
2021/10/24 08:03:54;;;;;;;22.83;7.22;;;;;;;;;;4958438;28;20043;-76
2021/10/24 08:06:32;;;;;;;20.25;6.65;;;;;;;;;;4959415;28;20070;-74
2021/10/24 08:09:02;;;;;;;25.33;6.10;;;;;;;;;;4974695;28;20065;-77
2021/10/24 08:11:30;;;;;;;24.88;7.07;;;;;;;;;;4975958;28;20054;-78
2021/10/24 08:14:01;;;;;;;21.90;6.30;;;;;;;;;;4957326;28;20074;-76
2021/10/24 08:16:29;;;;;;;22.65;6.75;;;;;;;;;;4958433;28;20137;-77
2021/10/24 08:19:00;;;;;;;21.40;6.43;;;;;;;;;;4958752;28;20038;-77
2021/10/24 08:21:37;;;;;;;24.67;6.95;;;;;;;;;;4958868;28;20053;-73
2021/10/24 08:24:05;;;;;;;24.20;6.43;;;;;;;;;;4961338;28;20503;-75
2021/10/24 08:26:41;;;;;;;25.75;6.65;;;;;;;;;;4984831;23;20054;-77
2021/10/24 08:29:10;;;;;;;29.63;7.07;;;;;;;;;;4943387;29;20595;-76
2021/10/24 08:31:58;;;;;;;19.08;6.18;;;;;;;;;;4955707;29;20070;-76
2021/10/24 08:34:26;;;;;;;22.80;6.90;;;;;;;;;;4954249;29;20043;-79
2021/10/24 08:36:54;;;;;;;31.92;7.30;;;;;;;;;;4943972;28;20075;-76
2021/10/24 08:39:21;;;;;;;25.08;6.97;;;;;;;;;;4949304;28;20038;-76
2021/10/24 08:41:50;;;;;;;24.58;6.80;;;;;;;;;;4979022;28;20400;-74
2021/10/24 08:44:18;;;;;;;22.92;6.90;;;;;;;;;;4975931;28;20268;-75
2021/10/24 08:46:45;;;;;;;22.27;7.45;;;;;;;;;;4956666;28;20047;-77
2021/10/24 08:49:14;;;;;;;19.70;6.40;;;;;;;;;;4939160;29;20048;-76
2021/10/24 08:51:42;;;;;;;19.02;6.75;;;;;;;;;;4955999;29;20080;-76
2021/10/24 08:54:10;;;;;;;28.35;7.35;;;;;;;;;;4955770;29;20043;-75
2021/10/24 08:56:39;;;;;;;26.02;6.35;;;;;;;;;;4955936;29;20057;-78
2021/10/24 08:59:08;;;;;;;21.65;6.65;;;;;;;;;;4939284;29;20460;-75
2021/10/24 09:01:49;;;;;;;24.05;6.55;;;;;;;;;;4938825;29;20412;-77
2021/10/24 09:04:17;;;;;;;25.88;6.88;;;;;;;;;;4938708;29;20072;-77
2021/10/24 09:06:45;;;;;;;18.25;6.18;;;;;;;;;;4956386;29;20043;-73
2021/10/24 09:09:13;;;;;;;31.08;7.20;;;;;;;;;;4955627;29;20043;-72
2021/10/24 09:12:11;;;;;;;16.58;5.95;;;;;;;;;;4955940;29;20054;-72
2021/10/24 09:14:49;;;;;;;19.42;6.00;;;;;;;;;;4933863;29;20074;-73
2021/10/24 09:17:30;;;;;;;19.33;6.05;;;;;;;;;;4938906;29;20472;-73
2021/10/24 09:20:02;;;;;;;18.35;5.75;;;;;;;;;;4955706;29;20070;-73
2021/10/24 09:22:30;;;;;;;24.08;6.60;;;;;;;;;;4939071;29;20051;-73
2021/10/24 09:25:09;;;;;;;27.02;6.55;;;;;;;;;;4938706;29;20146;-74
2021/10/24 09:27:46;;;;;;;29.27;6.53;;;;;;;;;;4938296;29;20122;-78
2021/10/24 09:30:19;;;;;;;22.33;6.05;;;;;;;;;;4938612;29;20066;-76
2021/10/24 09:32:48;;;;;;;17.42;5.90;;;;;;;;;;4955517;29;20102;-73
2021/10/24 09:35:15;;;;;;;25.40;6.05;;;;;;;;;;4938627;29;20102;-74
2021/10/24 09:38:23;;;;;;;25.92;5.65;;;;;;;;;;4934441;29;20618;-73
2021/10/24 09:41:12;;;;;;;23.50;6.13;;;;;;;;;;4933423;29;20135;-75
2021/10/24 09:43:42;;;;;;;32.17;6.53;;;;;;;;;;4918212;29;20051;-75
2021/10/24 09:46:13;;;;;;;21.52;7.25;;;;;;;;;;4918102;29;20052;-75
2021/10/24 09:48:44;;;;;;;20.27;5.78;;;;;;;;;;4934145;29;20087;-75
2021/10/24 09:51:16;;;;;;;26.00;6.05;;;;;;;;;;4934296;29;20426;-74
2021/10/24 09:53:46;;;;;;;19.63;5.68;;;;;;;;;;4934116;29;20116;-75
2021/10/24 09:56:18;;;;;;;27.27;6.05;;;;;;;;;;4902761;29;20047;-77
2021/10/24 09:58:53;;;;;;;27.42;6.18;;;;;;;;;;4902292;29;20508;-74
2021/10/24 10:01:24;;;;;;;32.03;6.30;;;;;;;;;;4917993;29;20074;-75
2021/10/24 10:03:52;;;;;;;22.33;5.40;;;;;;;;;;4933421;29;20060;-75
2021/10/24 10:06:26;;;;;;;19.48;5.70;;;;;;;;;;4918203;29;20103;-76
2021/10/24 10:08:53;;;;;;;23.75;5.60;;;;;;;;;;4941809;29;20138;-74
2021/10/24 10:11:27;;;;;;;23.70;6.25;;;;;;;;;;4937396;29;20067;-77
2021/10/24 10:14:05;;;;;;;22.80;6.22;;;;;;;;;;4955129;29;20071;-75
2021/10/24 10:16:41;;;;;;;25.77;6.10;;;;;;;;;;4955076;29;20408;-76
2021/10/24 10:19:10;;;;;;;23.30;6.10;;;;;;;;;;4955442;29;20524;-75
2021/10/24 10:21:37;;;;;;;18.15;6.10;;;;;;;;;;4937942;29;20127;-74
2021/10/24 10:24:31;;;;;;;23.95;6.43;;;;;;;;;;4937668;29;20054;-77
2021/10/24 10:27:22;;;;;;;29.10;8.10;;;;;;;;;;4953886;28;20051;-74
2021/10/24 10:29:50;;;;;;;29.65;6.05;;;;;;;;;;4933008;29;20059;-77
2021/10/24 10:32:20;;;;;;;25.90;5.50;;;;;;;;;;4954768;29;20481;-77
2021/10/24 10:35:03;;;;;;;28.90;6.68;;;;;;;;;;4954626;29;20404;-75
2021/10/24 10:37:55;;;;;;;27.75;7.25;;;;;;;;;;4938001;29;20457;-75
2021/10/24 10:40:41;;;;;;;27.55;6.20;;;;;;;;;;4937556;29;20082;-76
2021/10/24 10:43:16;;;;;;;18.38;5.72;;;;;;;;;;4954359;29;20062;-76
2021/10/24 10:45:48;;;;;;;30.10;6.85;;;;;;;;;;4937791;29;20046;-75
2021/10/24 10:48:32;;;;;;;26.63;6.00;;;;;;;;;;4953579;28;20057;-75
2021/10/24 10:51:23;;;;;;;25.67;6.40;;;;;;;;;;4965963;28;20050;-77
2021/10/24 10:54:04;;;;;;;29.10;7.70;;;;;;;;;;4973801;28;20042;-74
2021/10/24 10:56:32;;;;;;;27.85;6.18;;;;;;;;;;4956633;28;20054;-74
2021/10/24 10:59:01;;;;;;;19.58;5.72;;;;;;;;;;4973915;28;20039;-76
2021/10/24 11:01:34;;;;;;;25.63;6.10;;;;;;;;;;4964433;28;20223;-74
2021/10/24 11:04:08;;;;;;;30.52;6.18;;;;;;;;;;4952479;29;20047;-80
2021/10/24 11:06:40;;;;;;;32.10;6.47;;;;;;;;;;4969306;28;20133;-76
2021/10/24 11:09:14;;;;;;;21.17;6.32;;;;;;;;;;4954838;28;20055;-77
2021/10/24 11:11:44;;;;;;;27.85;6.57;;;;;;;;;;4971861;28;20105;-75
2021/10/24 11:14:12;;;;;;;22.90;6.13;;;;;;;;;;4954775;28;20412;-73
2021/10/24 11:16:40;;;;;;;23.85;6.47;;;;;;;;;;4938673;29;20048;-75
2021/10/24 11:19:28;;;;;;;26.25;6.28;;;;;;;;;;4954523;28;20044;-77
2021/10/24 11:22:10;;;;;;;22.85;5.75;;;;;;;;;;4952758;29;20035;-75
2021/10/24 11:24:44;;;;;;;33.60;6.05;;;;;;;;;;4966775;28;20400;-76
2021/10/24 11:27:16;;;;;;;25.27;6.05;;;;;;;;;;4955542;28;20078;-75
2021/10/24 11:29:49;;;;;;;33.85;7.07;;;;;;;;;;4956478;28;20066;-76
2021/10/24 11:32:41;;;;;;;26.08;5.70;;;;;;;;;;4973688;28;20113;-75
2021/10/24 11:35:14;;;;;;;24.98;6.55;;;;;;;;;;4973865;28;20035;-74
2021/10/24 11:37:51;;;;;;;22.77;6.18;;;;;;;;;;4957717;28;20065;-74
2021/10/24 11:40:24;;;;;;;23.23;5.53;;;;;;;;;;4977427;28;20047;-75
2021/10/24 11:42:51;;;;;;;;;;;;;;;;;;4960296;28;20065;-74
2021/10/24 11:45:22;;;;;;;28.00;5.85;;;;;;;;;;4959750;28;19922;-75
2021/10/24 11:47:56;;;;;;;26.55;6.28;;;;;;;;;;4959459;28;20069;-74
2021/10/24 11:50:43;;;;;;;28.83;5.95;;;;;;;;;;4976724;28;20497;-74
2021/10/24 11:53:32;;;;;;;31.92;6.07;;;;;;;;;;4959720;28;20137;-73
2021/10/24 11:56:03;;;;;;;25.80;6.10;;;;;;;;;;4976744;28;20043;-74
2021/10/24 12:01:23;;;;;;;34.15;6.68;;;;;;;;;;4976778;28;20039;-74
2021/10/24 12:03:54;;;;;;;31.08;6.45;;;;;;;;;;4943399;28;20047;-74
2021/10/24 12:06:41;;;;;;;29.70;6.78;;;;;;;;;;4943353;28;20051;-74
2021/10/24 12:09:13;;;;;;;27.00;6.50;;;;;;;;;;4976489;28;20054;-74
2021/10/24 12:11:46;;;;;;;30.15;6.60;;;;;;;;;;4959505;28;20057;-75
2021/10/24 12:14:14;;;;;;;26.92;6.60;;;;;;;;;;4976792;28;20395;-74
2021/10/24 12:16:42;;;;;;;31.42;5.97;;;;;;;;;;4959547;28;20125;-76
2021/10/24 12:19:16;;;;;;;33.35;6.70;;;;;;;;;;4959358;28;20436;-74
2021/10/24 12:21:54;;;;;;;30.98;7.15;;;;;;;;;;4959309;28;20051;-77
2021/10/24 12:24:23;;;;;;;27.13;7.07;;;;;;;;;;4937483;29;20043;-75
2021/10/24 12:27:06;;;;;;;36.40;8.73;;;;;;;;;;4922405;29;20559;-76
2021/10/24 12:29:35;;;;;;;33.30;7.70;;;;;;;;;;4939645;29;20114;-75
2021/10/24 12:32:12;;;;;;;29.75;7.07;;;;;;;;;;4962151;28;20061;-76
2021/10/24 12:34:57;;;;;;;33.47;7.15;;;;;;;;;;4956768;28;20043;-74
2021/10/24 12:37:26;;;;;;;32.35;7.63;;;;;;;;;;4975912;28;20529;-75
2021/10/24 12:40:12;;;;;;;27.42;6.75;;;;;;;;;;4960480;28;20705;-75
2021/10/24 12:43:02;;;;;;;35.85;6.82;;;;;;;;;;4973365;28;20046;-76
2021/10/24 12:45:29;;;;;;;;;;;;;;;;;;4974244;28;20101;-74
2021/10/24 12:47:59;;;;;;;35.15;7.18;;;;;;;;;;4973455;28;20024;-76
2021/10/24 12:50:30;;;;;;;30.92;7.10;;;;;;;;;;4956201;28;20093;-75
2021/10/24 12:53:00;;;;;;;27.15;7.13;;;;;;;;;;4970652;28;20046;-77
2021/10/24 12:55:34;;;;;;;50.58;9.07;;;;;;;;;;4974597;28;20046;-76
2021/10/24 12:58:01;;;;;;;31.15;8.18;;;;;;;;;;4974675;28;20503;-74
2021/10/24 13:00:30;;;;;;;35.22;8.50;;;;;;;;;;4975257;28;20137;-75
2021/10/24 13:02:59;;;;;;;46.85;9.63;;;;;;;;;;4975381;28;20050;-75
2021/10/24 13:05:28;;;;;;;36.92;8.80;;;;;;;;;;4975588;28;20117;-74
2021/10/24 13:07:56;;;;;;;42.65;9.45;;;;;;;;;;4992949;28;20097;-75
2021/10/24 13:10:28;;;;;;;29.58;7.85;;;;;;;;;;4975286;28;20514;-75
2021/10/24 13:12:56;;;;;;;40.97;9.93;;;;;;;;;;4975920;28;20054;-75
2021/10/24 13:15:24;;;;;;;43.20;7.88;;;;;;;;;;4975705;28;20052;-75
2021/10/24 13:17:52;;;;;;;36.90;8.60;;;;;;;;;;4979264;28;20121;-75
2021/10/24 13:20:20;;;;;;;33.25;8.98;;;;;;;;;;4956090;28;20061;-77
2021/10/24 13:22:58;;;;;;;30.77;7.82;;;;;;;;;;4973092;28;20050;-77
2021/10/24 13:25:27;;;;;;;38.30;8.40;;;;;;;;;;4972814;28;20410;-76
2021/10/24 13:27:56;;;;;;;32.08;8.07;;;;;;;;;;4955892;28;20074;-75
2021/10/24 13:30:26;;;;;;;33.25;7.82;;;;;;;;;;4972813;28;20595;-76
2021/10/24 13:32:54;;;;;;;37.67;9.35;;;;;;;;;;4940591;29;20130;-75
2021/10/24 13:35:24;;;;;;;35.58;8.95;;;;;;;;;;4954108;29;20126;-75
2021/10/24 13:37:59;;;;;;;37.25;9.30;;;;;;;;;;4933364;29;20047;-75
2021/10/24 13:40:26;;;;;;;40.65;9.57;;;;;;;;;;4936750;29;20049;-74
2021/10/24 13:42:54;;;;;;;37.63;8.82;;;;;;;;;;4953485;29;20035;-74
2021/10/24 13:45:21;;;;;;;35.28;8.30;;;;;;;;;;4953436;29;20759;-74
2021/10/24 13:47:50;;;;;;;32.47;7.70;;;;;;;;;;4936075;29;20611;-73
2021/10/24 13:50:17;;;;;;;35.95;8.50;;;;;;;;;;4953074;29;20054;-73
2021/10/24 13:52:45;;;;;;;29.85;8.05;;;;;;;;;;4920404;28;20151;-73
2021/10/24 13:55:13;;;;;;;36.70;8.63;;;;;;;;;;4936196;29;20039;-73
2021/10/24 13:57:40;;;;;;;38.67;9.18;;;;;;;;;;4936013;28;20057;-74
2021/10/24 14:00:08;;;;;;;42.08;9.15;;;;;;;;;;4935474;29;20138;-75
2021/10/24 14:02:36;;;;;;;35.13;8.57;;;;;;;;;;4953353;29;20496;-76
2021/10/24 14:05:04;;;;;;;36.63;8.82;;;;;;;;;;4970105;28;20447;-74
2021/10/24 14:07:34;;;;;;;39.25;9.00;;;;;;;;;;4955008;28;20603;-75
2021/10/24 14:10:03;;;;;;;40.53;9.10;;;;;;;;;;4954919;28;20415;-73
2021/10/24 14:12:32;;;;;;;51.05;9.98;;;;;;;;;;4972209;28;20043;-74
2021/10/24 14:14:59;;;;;;;41.15;10.60;;;;;;;;;;4939288;28;20050;-74
2021/10/24 14:17:27;;;;;;;50.25;10.75;;;;;;;;;;4972208;28;20054;-74
2021/10/24 14:19:55;;;;;;;50.97;10.50;;;;;;;;;;4938589;28;20146;-75
2021/10/24 14:22:23;;;;;;;39.83;9.60;;;;;;;;;;4952202;28;20573;-74
2021/10/24 14:24:54;;;;;;;43.92;10.70;;;;;;;;;;4954770;29;20122;-74
2021/10/24 14:27:22;;;;;;;51.63;10.98;;;;;;;;;;4953523;29;20075;-75
2021/10/24 14:29:50;;;;;;;40.75;9.90;;;;;;;;;;4954704;29;20043;-73
2021/10/24 14:32:18;;;;;;;47.92;10.82;;;;;;;;;;4920546;29;20417;-74
2021/10/24 14:34:48;;;;;;;40.35;9.18;;;;;;;;;;4937610;28;20515;-75
2021/10/24 14:37:17;;;;;;;46.88;11.25;;;;;;;;;;4952583;29;20154;-76
2021/10/24 14:39:46;;;;;;;48.80;10.73;;;;;;;;;;4935821;29;20059;-76
2021/10/24 14:42:18;;;;;;;48.42;9.63;;;;;;;;;;4952707;29;20467;-74
2021/10/24 14:44:46;;;;;;;38.08;8.82;;;;;;;;;;4935407;29;20051;-76
2021/10/24 14:47:13;;;;;;;40.15;9.63;;;;;;;;;;4919592;29;20416;-74
2021/10/24 14:49:41;;;;;;;47.75;10.63;;;;;;;;;;4949504;29;20513;-72
2021/10/24 14:52:09;;;;;;;46.22;10.57;;;;;;;;;;4935535;29;20069;-72
2021/10/24 14:54:37;;;;;;;43.08;9.75;;;;;;;;;;4952519;29;20051;-73
2021/10/24 14:57:12;;;;;;;39.17;8.90;;;;;;;;;;4920481;29;20078;-73
2021/10/24 14:59:45;;;;;;;38.35;8.05;;;;;;;;;;4952409;29;20100;-74
2021/10/24 15:02:15;;;;;;;40.08;10.20;;;;;;;;;;4935112;29;20053;-74